createdAt,value
2023-01-07T00:00:02.034Z,44.1
2023-01-07T00:01:12.000Z,44.1
2023-01-07T00:02:22.000Z,44.1
2023-01-07T00:03:32.000Z,44.1
2023-01-07T00:07:01.000Z,44.2
2023-01-07T00:08:11.868Z,44.2
2023-01-07T00:09:21.000Z,44.2
2023-01-07T00:10:32.000Z,44.2
2023-01-07T00:11:42.000Z,44.2
2023-01-07T00:12:52.000Z,44.2
2023-01-07T00:14:02.442Z,44.2
2023-01-07T00:15:12.000Z,44.2
2023-01-07T00:16:22.000Z,44.2
2023-01-07T00:18:42.000Z,44.2
2023-01-07T00:19:52.000Z,44.2
2023-01-07T00:21:02.171Z,44.3
2023-01-07T00:22:12.000Z,44.3
2023-01-07T00:23:22.000Z,44.3
2023-01-07T00:24:32.000Z,44.3
2023-01-07T00:25:42.000Z,44.3
2023-01-07T00:26:52.755Z,44.3
2023-01-07T00:28:02.878Z,44.3
2023-01-07T00:29:12.000Z,44.3
2023-01-07T00:30:23.000Z,44.3
2023-01-07T00:31:32.247Z,44.3
2023-01-07T00:32:41.000Z,44.3
2023-01-07T00:33:51.000Z,44.4
2023-01-07T00:35:01.000Z,44.3
2023-01-07T00:36:11.000Z,44.4
2023-01-07T00:37:21.850Z,44.3
2023-01-07T00:38:31.000Z,44.3
2023-01-07T00:43:12.445Z,44.4
2023-01-07T00:44:22.000Z,44.4
2023-01-07T00:45:32.000Z,44.4
2023-01-07T00:47:52.000Z,44.4
2023-01-07T00:50:12.000Z,44.5
2023-01-07T00:51:21.000Z,44.4
2023-01-07T00:52:30.000Z,44.5
2023-01-07T00:53:40.000Z,44.5
2023-01-07T00:54:50.686Z,44.5
2023-01-07T00:56:00.815Z,44.5
2023-01-07T00:57:10.000Z,44.5
2023-01-07T00:58:21.000Z,44.5
2023-01-07T00:59:31.000Z,44.5
2023-01-07T01:01:51.391Z,44.5
2023-01-07T01:03:01.507Z,44.5
2023-01-07T01:04:11.000Z,44.5
2023-01-07T01:05:21.740Z,44.5
2023-01-07T01:06:31.867Z,44.6
2023-01-07T01:07:41.000Z,44.6
2023-01-07T01:08:51.000Z,44.6
2023-01-07T01:10:01.000Z,44.6
2023-01-07T01:11:11.000Z,44.6
2023-01-07T01:12:21.000Z,44.6
2023-01-07T01:13:31.000Z,44.6
2023-01-07T01:14:41.000Z,44.6
2023-01-07T01:17:01.000Z,44.6
2023-01-07T01:18:12.052Z,44.6
2023-01-07T01:19:22.000Z,44.7
2023-01-07T01:20:32.000Z,44.7
2023-01-07T01:21:42.403Z,44.8
2023-01-07T01:22:51.537Z,44.7
2023-01-07T01:24:01.652Z,44.8
2023-01-07T01:25:11.776Z,44.8
2023-01-07T01:26:20.000Z,44.8
2023-01-07T01:27:30.000Z,44.8
2023-01-07T01:28:40.000Z,44.8
2023-01-07T01:29:50.288Z,44.8
2023-01-07T01:31:00.000Z,44.8
2023-01-07T01:32:10.000Z,44.8
2023-01-07T01:33:20.647Z,44.8
2023-01-07T01:34:30.000Z,44.8
2023-01-07T01:35:40.874Z,44.8
2023-01-07T01:36:50.000Z,44.8
2023-01-07T01:38:01.000Z,44.8
2023-01-07T01:39:10.000Z,44.8
2023-01-07T01:40:19.384Z,44.8
2023-01-07T01:41:29.000Z,44.8
2023-01-07T01:42:39.000Z,44.8
2023-01-07T01:43:49.740Z,44.8
2023-01-07T01:46:09.000Z,44.8
2023-01-07T01:47:20.088Z,44.8
2023-01-07T01:48:30.212Z,44.8
2023-01-07T01:49:40.326Z,44.8
2023-01-07T01:50:50.000Z,44.8
2023-01-07T01:52:00.000Z,44.8
2023-01-07T01:53:10.000Z,44.8
2023-01-07T01:54:20.792Z,45
2023-01-07T01:55:29.000Z,45
2023-01-07T01:56:40.000Z,45
2023-01-07T01:57:50.000Z,45
2023-01-07T01:59:00.000Z,45
2023-01-07T02:00:10.000Z,45
2023-01-07T02:01:20.000Z,45
2023-01-07T02:02:30.000Z,45
2023-01-07T02:03:40.000Z,45
2023-01-07T02:04:50.000Z,45
2023-01-07T02:07:11.101Z,45
2023-01-07T02:08:21.232Z,45
2023-01-07T02:09:31.340Z,45
2023-01-07T02:10:41.000Z,45
2023-01-07T02:11:50.000Z,45
2023-01-07T02:15:20.942Z,45
2023-01-07T02:16:30.000Z,45
2023-01-07T02:18:50.000Z,45
2023-01-07T02:19:59.462Z,45
2023-01-07T02:21:09.000Z,45
2023-01-07T02:22:19.000Z,45
2023-01-07T02:23:29.000Z,45
2023-01-07T02:24:39.000Z,45
2023-01-07T02:25:50.000Z,45
2023-01-07T02:28:10.275Z,45.1
2023-01-07T02:29:20.000Z,45.1
2023-01-07T02:30:30.000Z,45.1
2023-01-07T02:31:40.000Z,45.1
2023-01-07T02:32:50.000Z,45.1
2023-01-07T02:35:10.000Z,45.1
2023-01-07T02:36:20.000Z,45.1
2023-01-07T02:37:29.000Z,45.1
2023-01-07T02:39:49.494Z,45.1
2023-01-07T02:40:59.610Z,45.1
2023-01-07T02:42:09.730Z,45.1
2023-01-07T02:43:19.852Z,45.1
2023-01-07T02:44:29.000Z,45.1
2023-01-07T02:45:40.000Z,45.3
2023-01-07T02:46:49.000Z,45.3
2023-01-07T02:49:09.000Z,45.3
2023-01-07T02:50:19.000Z,45.3
2023-01-07T02:51:29.000Z,45.3
2023-01-07T02:52:39.817Z,45.3
2023-01-07T02:53:49.000Z,45.3
2023-01-07T02:55:00.043Z,45.3
2023-01-07T02:56:10.000Z,45.3
2023-01-07T02:57:20.000Z,45.3
2023-01-07T02:58:30.000Z,45.3
2023-01-07T02:59:40.000Z,45.3
2023-01-07T03:00:50.000Z,45.3
2023-01-07T03:01:59.778Z,45.3
2023-01-07T03:03:09.000Z,45.3
2023-01-07T03:04:19.000Z,45.3
2023-01-07T03:05:28.000Z,45.3
2023-01-07T03:06:38.000Z,45.3
2023-01-07T03:07:48.000Z,45.3
2023-01-07T03:08:58.000Z,45.3
2023-01-07T03:10:08.000Z,45.3
2023-01-07T03:11:18.000Z,45.3
2023-01-07T03:13:38.000Z,45.3
2023-01-07T03:14:49.000Z,45.3
2023-01-07T03:15:59.224Z,45.3
2023-01-07T03:17:09.332Z,45.3
2023-01-07T03:18:19.000Z,45.3
2023-01-07T03:19:29.000Z,45.3
2023-01-07T03:21:48.000Z,45.3
2023-01-07T03:22:57.969Z,45.3
2023-01-07T03:25:17.215Z,45.5
2023-01-07T03:27:37.460Z,45.5
2023-01-07T03:28:47.000Z,45.5
2023-01-07T03:29:57.000Z,45.5
2023-01-07T03:31:07.000Z,45.5
2023-01-07T03:32:17.920Z,45.5
2023-01-07T03:33:28.000Z,45.5
2023-01-07T03:34:38.000Z,45.5
2023-01-07T03:36:58.000Z,45.5
2023-01-07T03:38:08.000Z,45.5
2023-01-07T03:39:17.000Z,45.5
2023-01-07T03:40:27.762Z,45.5
2023-01-07T03:41:37.000Z,45.5
2023-01-07T03:42:47.000Z,45.5
2023-01-07T03:43:58.000Z,45.5
2023-01-07T03:45:08.237Z,45.5
2023-01-07T03:46:18.000Z,45.5
2023-01-07T03:48:38.593Z,45.5
2023-01-07T03:49:48.000Z,45.5
2023-01-07T03:50:58.000Z,45.5
2023-01-07T03:52:08.937Z,45.5
2023-01-07T03:53:19.000Z,45.5
2023-01-07T03:54:28.000Z,45.5
2023-01-07T03:55:38.000Z,45.6
2023-01-07T03:56:48.000Z,45.5
2023-01-07T03:57:58.000Z,45.5
2023-01-07T03:59:08.658Z,45.5
2023-01-07T04:00:18.000Z,45.6
2023-01-07T04:01:27.911Z,45.6
2023-01-07T04:02:37.047Z,45.6
2023-01-07T04:03:47.000Z,45.6
2023-01-07T04:04:57.294Z,45.6
2023-01-07T04:06:07.000Z,45.6
2023-01-07T04:07:17.519Z,45.7
2023-01-07T04:08:27.000Z,45.7
2023-01-07T04:09:37.000Z,45.7
2023-01-07T04:13:08.104Z,45.7
2023-01-07T04:14:18.231Z,45.7
2023-01-07T04:15:28.000Z,45.7
2023-01-07T04:16:37.000Z,45.7
2023-01-07T04:17:46.000Z,45.7
2023-01-07T04:20:06.848Z,45.8
2023-01-07T04:21:16.967Z,45.7
2023-01-07T04:23:37.000Z,45.8
2023-01-07T04:24:47.000Z,45.8
2023-01-07T04:25:57.000Z,45.8
2023-01-07T04:27:07.000Z,45.7
2023-01-07T04:28:17.683Z,45.8
2023-01-07T04:29:27.000Z,45.8
2023-01-07T04:31:48.000Z,45.8
2023-01-07T04:32:57.171Z,45.8
2023-01-07T04:35:17.000Z,45.8
2023-01-07T04:36:27.000Z,45.8
2023-01-07T04:37:37.000Z,45.8
2023-01-07T04:38:47.000Z,45.8
2023-01-07T04:39:57.866Z,45.8
2023-01-07T04:41:07.000Z,45.8
2023-01-07T04:42:18.104Z,45.8
2023-01-07T04:43:28.000Z,45.8
2023-01-07T04:46:58.568Z,45.8
2023-01-07T04:48:07.709Z,45.8
2023-01-07T04:49:17.000Z,45.9
2023-01-07T04:50:27.953Z,45.9
2023-01-07T04:51:38.059Z,45.9
2023-01-07T04:52:48.000Z,45.9
2023-01-07T04:53:58.000Z,45.9
2023-01-07T04:55:08.000Z,45.9
2023-01-07T04:56:18.524Z,45.9
2023-01-07T04:59:48.000Z,45.9
2023-01-07T05:00:58.000Z,45.9
2023-01-07T05:02:09.000Z,46
2023-01-07T05:03:18.243Z,45.9
2023-01-07T05:04:28.000Z,46
2023-01-07T05:05:38.480Z,46
2023-01-07T05:06:48.611Z,46
2023-01-07T05:07:58.727Z,46
2023-01-07T05:09:08.000Z,46
2023-01-07T05:10:18.956Z,46
2023-01-07T05:11:29.000Z,46
2023-01-07T05:12:39.000Z,46
2023-01-07T05:13:49.303Z,46
2023-01-07T05:14:59.000Z,46
2023-01-07T05:16:09.535Z,46
2023-01-07T05:17:19.670Z,46
2023-01-07T05:18:28.792Z,46
2023-01-07T05:19:38.000Z,46
2023-01-07T05:20:49.000Z,46
2023-01-07T05:21:59.000Z,46
2023-01-07T05:23:08.000Z,46
2023-01-07T05:24:17.420Z,46
2023-01-07T05:25:27.540Z,46.1
2023-01-07T05:26:37.000Z,46.1
2023-01-07T05:27:47.000Z,46.1
2023-01-07T05:28:57.000Z,46.1
2023-01-07T05:30:08.000Z,46.1
2023-01-07T05:31:18.000Z,46.1
2023-01-07T05:32:28.000Z,46.1
2023-01-07T05:33:38.000Z,46.1
2023-01-07T05:34:48.000Z,46.1
2023-01-07T05:35:57.620Z,46.1
2023-01-07T05:37:06.754Z,46.1
2023-01-07T05:38:16.000Z,46.1
2023-01-07T05:39:26.000Z,46.1
2023-01-07T05:40:37.000Z,46.1
2023-01-07T05:41:47.229Z,46.1
2023-01-07T05:42:57.000Z,46.1
2023-01-07T05:44:07.000Z,46.2
2023-01-07T05:45:17.000Z,46.1
2023-01-07T05:46:27.695Z,46.2
2023-01-07T05:47:37.000Z,46.2
2023-01-07T05:48:47.000Z,46.2
2023-01-07T05:49:58.000Z,46.2
2023-01-07T05:51:08.166Z,46.2
2023-01-07T05:52:17.000Z,46.2
2023-01-07T05:53:27.000Z,46.2
2023-01-07T05:54:37.000Z,46.2
2023-01-07T05:55:47.000Z,46.2
2023-01-07T05:56:57.000Z,46.2
2023-01-07T05:58:07.887Z,46.2
2023-01-07T05:59:18.013Z,46.2
2023-01-07T06:00:28.000Z,46.2
2023-01-07T06:01:38.000Z,46.2
2023-01-07T06:02:48.000Z,46.3
2023-01-07T06:03:58.471Z,46.2
2023-01-07T06:05:08.000Z,46.2
2023-01-07T06:06:18.717Z,46.3
2023-01-07T06:07:27.000Z,46.2
2023-01-07T06:08:37.000Z,46.3
2023-01-07T06:09:48.000Z,46.3
2023-01-07T06:10:58.190Z,46.3
2023-01-07T06:12:08.000Z,46.3
2023-01-07T06:13:18.434Z,46.3
2023-01-07T06:14:28.553Z,46.3
2023-01-07T06:15:38.000Z,46.3
2023-01-07T06:16:48.000Z,46.3
2023-01-07T06:17:58.000Z,46.3
2023-01-07T06:19:09.000Z,46.3
2023-01-07T06:20:19.000Z,46.3
2023-01-07T06:21:29.252Z,46.3
2023-01-07T06:22:38.000Z,46.3
2023-01-07T06:23:48.000Z,46.3
2023-01-07T06:24:58.624Z,46.3
2023-01-07T06:26:08.735Z,46.4
2023-01-07T06:27:18.862Z,46.3
2023-01-07T06:28:28.973Z,46.3
2023-01-07T06:29:39.000Z,46.4
2023-01-07T06:30:49.000Z,46.4
2023-01-07T06:31:59.324Z,46.3
2023-01-07T06:33:09.439Z,46.4
2023-01-07T06:34:19.000Z,46.4
2023-01-07T06:35:29.000Z,46.4
2023-01-07T06:36:39.000Z,46.4
2023-01-07T06:37:48.000Z,46.4
2023-01-07T06:38:59.000Z,46.4
2023-01-07T06:40:09.000Z,46.4
2023-01-07T06:41:19.294Z,46.4
2023-01-07T06:42:28.000Z,46.4
2023-01-07T06:43:38.000Z,46.4
2023-01-07T06:44:48.000Z,46.4
2023-01-07T06:45:58.000Z,46.5
2023-01-07T06:47:08.000Z,46.4
2023-01-07T06:48:19.006Z,46.4
2023-01-07T06:49:29.000Z,46.4
2023-01-07T06:50:39.240Z,46.5
2023-01-07T06:51:49.000Z,46.5
2023-01-07T06:52:59.000Z,46.5
2023-01-07T06:54:09.000Z,46.5
2023-01-07T06:55:19.000Z,46.4
2023-01-07T06:56:29.000Z,46.5
2023-01-07T06:57:38.000Z,46.5
2023-01-07T06:58:49.000Z,46.5
2023-01-07T06:59:59.195Z,46.5
2023-01-07T07:01:09.000Z,46.5
2023-01-07T07:02:19.429Z,46.5
2023-01-07T07:03:29.000Z,46.5
2023-01-07T07:04:39.000Z,46.5
2023-01-07T07:05:49.000Z,46.5
2023-01-07T07:06:59.000Z,46.5
2023-01-07T07:08:10.000Z,46.5
2023-01-07T07:09:20.000Z,46.5
2023-01-07T07:10:30.257Z,46.5
2023-01-07T07:11:40.376Z,46.5
2023-01-07T07:12:49.512Z,46.5
2023-01-07T07:13:59.633Z,46.5
2023-01-07T07:15:09.000Z,46.5
2023-01-07T07:16:19.857Z,46.5
2023-01-07T07:17:29.000Z,46.5
2023-01-07T07:18:40.000Z,46.5
2023-01-07T07:19:50.000Z,46.5
2023-01-07T07:21:00.000Z,46.5
2023-01-07T07:22:10.000Z,46.5
2023-01-07T07:23:20.000Z,46.6
2023-01-07T07:24:30.000Z,46.6
2023-01-07T07:25:40.000Z,46.6
2023-01-07T07:26:50.000Z,46.6
2023-01-07T07:28:00.062Z,46.5
2023-01-07T07:29:10.000Z,46.6
2023-01-07T07:30:20.000Z,46.6
2023-01-07T07:31:30.000Z,46.6
2023-01-07T07:32:40.000Z,46.6
2023-01-07T07:33:50.000Z,46.6
2023-01-07T07:35:00.000Z,46.6
2023-01-07T07:36:10.000Z,46.6
2023-01-07T07:37:20.000Z,46.6
2023-01-07T07:38:31.000Z,46.6
2023-01-07T07:39:41.000Z,46.6
2023-01-07T07:40:51.000Z,46.6
2023-01-07T07:42:01.000Z,46.6
2023-01-07T07:43:10.000Z,46.6
2023-01-07T07:44:20.000Z,46.6
2023-01-07T07:45:30.824Z,46.6
2023-01-07T07:46:40.000Z,46.6
2023-01-07T07:47:51.000Z,46.6
2023-01-07T07:49:01.000Z,46.6
2023-01-07T07:50:11.000Z,46.6
2023-01-07T07:51:21.000Z,46.6
2023-01-07T07:54:51.000Z,46.6
2023-01-07T07:56:01.000Z,46.6
2023-01-07T07:57:12.000Z,46.6
2023-01-07T07:58:21.137Z,46.7
2023-01-07T07:59:31.000Z,46.6
2023-01-07T08:00:41.000Z,46.6
2023-01-07T08:03:01.609Z,46.6
2023-01-07T08:04:10.000Z,46.6
2023-01-07T08:05:19.883Z,46.7
2023-01-07T08:06:30.000Z,46.7
2023-01-07T08:07:40.126Z,46.7
2023-01-07T08:08:50.000Z,46.7
2023-01-07T08:10:00.366Z,46.7
2023-01-07T08:11:10.000Z,46.6
2023-01-07T08:12:20.590Z,46.7
2023-01-07T08:13:30.706Z,46.7
2023-01-07T08:14:40.823Z,46.7
2023-01-07T08:15:50.000Z,46.7
2023-01-07T08:17:00.091Z,46.6
2023-01-07T08:18:09.221Z,46.7
2023-01-07T08:19:19.000Z,46.7
2023-01-07T08:20:29.000Z,46.7
2023-01-07T08:21:39.000Z,46.7
2023-01-07T08:22:49.690Z,46.7
2023-01-07T08:23:59.803Z,46.7
2023-01-07T08:25:09.000Z,46.7
2023-01-07T08:26:20.000Z,46.7
2023-01-07T08:27:30.000Z,46.7
2023-01-07T08:28:40.000Z,46.7
2023-01-07T08:29:50.000Z,46.7
2023-01-07T08:31:00.526Z,46.7
2023-01-07T08:32:10.627Z,46.7
2023-01-07T08:33:19.000Z,46.7
2023-01-07T08:34:29.000Z,46.7
2023-01-07T08:36:50.000Z,46.7
2023-01-07T08:38:00.231Z,46.7
2023-01-07T08:39:10.000Z,46.7
2023-01-07T08:40:20.000Z,46.7
2023-01-07T08:41:30.584Z,46.8
2023-01-07T08:43:50.000Z,46.7
2023-01-07T08:46:11.000Z,46.8
2023-01-07T08:47:20.000Z,46.8
2023-01-07T08:48:29.000Z,46.8
2023-01-07T08:49:39.000Z,46.8
2023-01-07T08:51:59.000Z,46.7
2023-01-07T08:53:09.000Z,46.8
2023-01-07T08:54:19.000Z,46.8
2023-01-07T08:55:30.037Z,46.8
2023-01-07T08:56:40.000Z,46.8
2023-01-07T08:57:50.271Z,46.8
2023-01-07T08:59:00.395Z,46.8
2023-01-07T09:00:10.000Z,46.8
2023-01-07T09:01:20.000Z,46.8
2023-01-07T09:02:30.000Z,46.8
2023-01-07T09:03:39.000Z,46.8
2023-01-07T09:04:50.000Z,46.8
2023-01-07T09:06:00.120Z,46.8
2023-01-07T09:07:10.000Z,46.8
2023-01-07T09:08:20.000Z,46.8
2023-01-07T09:09:30.000Z,46.8
2023-01-07T09:10:40.000Z,46.8
2023-01-07T09:11:50.704Z,46.8
2023-01-07T09:13:00.818Z,46.8
2023-01-07T09:14:09.000Z,46.8
2023-01-07T09:15:19.098Z,46.8
2023-01-07T09:16:29.210Z,46.8
2023-01-07T09:17:39.328Z,46.8
2023-01-07T09:18:49.000Z,46.8
2023-01-07T09:19:59.000Z,46.8
2023-01-07T09:21:09.000Z,46.8
2023-01-07T09:22:19.000Z,46.8
2023-01-07T09:23:29.000Z,46.8
2023-01-07T09:24:40.000Z,46.8
2023-01-07T09:25:50.000Z,46.8
2023-01-07T09:27:00.000Z,46.8
2023-01-07T09:28:10.000Z,46.8
2023-01-07T09:29:20.000Z,46.8
2023-01-07T09:30:29.000Z,46.8
2023-01-07T09:31:39.000Z,46.8
2023-01-07T09:32:49.000Z,46.8
2023-01-07T09:33:59.989Z,46.8
2023-01-07T09:35:10.113Z,46.8
2023-01-07T09:36:20.000Z,46.8
2023-01-07T09:37:30.000Z,46.8
2023-01-07T09:38:40.000Z,46.8
2023-01-07T09:39:50.000Z,46.8
2023-01-07T09:41:00.697Z,46.8
2023-01-07T09:42:10.000Z,46.9
2023-01-07T09:43:20.000Z,46.8
2023-01-07T09:44:31.063Z,46.9
2023-01-07T09:45:40.000Z,46.9
2023-01-07T09:46:50.301Z,46.8
2023-01-07T09:48:00.000Z,46.9
2023-01-07T09:49:10.000Z,46.9
2023-01-07T09:50:20.648Z,46.9
2023-01-07T09:51:30.000Z,46.9
2023-01-07T09:52:40.887Z,46.9
2023-01-07T09:53:51.000Z,46.9
2023-01-07T09:55:01.138Z,46.9
2023-01-07T09:56:11.000Z,46.8
2023-01-07T09:57:21.361Z,46.9
2023-01-07T09:58:31.478Z,46.8
2023-01-07T09:59:41.000Z,46.8
2023-01-07T10:03:10.000Z,46.9
2023-01-07T10:04:21.075Z,46.9
2023-01-07T10:05:31.201Z,46.9
2023-01-07T10:06:41.317Z,46.9
2023-01-07T10:07:51.000Z,46.9
2023-01-07T10:09:01.555Z,46.9
2023-01-07T10:10:11.000Z,46.9
2023-01-07T10:11:21.000Z,46.9
2023-01-07T10:12:31.000Z,46.9
2023-01-07T10:13:42.000Z,46.9
2023-01-07T10:14:52.000Z,46.9
2023-01-07T10:16:01.266Z,46.9
2023-01-07T10:17:11.000Z,46.9
2023-01-07T10:18:21.000Z,46.9
2023-01-07T10:19:31.620Z,46.9
2023-01-07T10:21:51.000Z,46.9
2023-01-07T10:23:01.016Z,46.9
2023-01-07T10:24:10.000Z,46.9
2023-01-07T10:25:20.000Z,46.9
2023-01-07T10:26:30.000Z,46.9
2023-01-07T10:27:40.485Z,46.9
2023-01-07T10:28:50.605Z,46.9
2023-01-07T10:30:00.718Z,46.9
2023-01-07T10:31:10.000Z,46.9
2023-01-07T10:32:20.000Z,46.9
2023-01-07T10:33:31.071Z,46.9
2023-01-07T10:34:41.000Z,46.9
2023-01-07T10:35:50.000Z,46.9
2023-01-07T10:36:59.472Z,46.9
2023-01-07T10:38:09.000Z,46.9
2023-01-07T10:39:19.000Z,46.9
2023-01-07T10:40:29.000Z,46.9
2023-01-07T10:41:39.000Z,46.9
2023-01-07T10:42:50.000Z,46.9
2023-01-07T10:44:00.174Z,46.9
2023-01-07T10:45:10.000Z,46.9
2023-01-07T10:46:20.000Z,46.9
2023-01-07T10:47:30.000Z,46.9
2023-01-07T10:48:40.660Z,46.9
2023-01-07T10:49:50.000Z,46.9
2023-01-07T10:51:00.000Z,46.9
2023-01-07T10:52:10.000Z,46.9
2023-01-07T10:53:20.000Z,46.9
2023-01-07T10:54:30.000Z,46.9
2023-01-07T10:55:40.367Z,46.9
2023-01-07T10:56:50.000Z,46.9
2023-01-07T10:58:00.617Z,46.9
2023-01-07T10:59:10.000Z,46.9
2023-01-07T11:00:20.847Z,46.9
2023-01-07T11:01:30.000Z,46.9
2023-01-07T11:02:41.000Z,46.9
2023-01-07T11:03:51.000Z,46.9
2023-01-07T11:05:01.311Z,46.9
2023-01-07T11:06:11.000Z,46.9
2023-01-07T11:07:20.000Z,46.9
2023-01-07T11:08:30.675Z,46.9
2023-01-07T11:09:40.796Z,46.9
2023-01-07T11:12:01.024Z,46.9
2023-01-07T11:13:11.000Z,46.9
2023-01-07T11:14:21.000Z,46.9
2023-01-07T11:15:31.390Z,46.9
2023-01-07T11:17:51.620Z,46.9
2023-01-07T11:19:01.000Z,46.9
2023-01-07T11:20:11.000Z,46.9
2023-01-07T11:21:21.965Z,46.9
2023-01-07T11:22:31.000Z,46.9
2023-01-07T11:23:41.000Z,46.9
2023-01-07T11:24:51.000Z,46.9
2023-01-07T11:27:11.572Z,46.9
2023-01-07T11:28:20.000Z,46.9
2023-01-07T11:29:29.000Z,46.9
2023-01-07T11:30:39.000Z,46.9
2023-01-07T11:31:50.000Z,46.9
2023-01-07T11:33:00.000Z,46.9
2023-01-07T11:34:10.000Z,46.9
2023-01-07T11:35:20.436Z,46.9
2023-01-07T11:36:30.000Z,46.9
2023-01-07T11:37:40.000Z,46.8
2023-01-07T11:38:50.000Z,46.8
2023-01-07T11:40:00.902Z,46.7
2023-01-07T11:41:10.000Z,46.7
2023-01-07T11:42:19.000Z,46.8
2023-01-07T11:43:29.297Z,46.8
2023-01-07T11:44:39.000Z,46.8
2023-01-07T11:45:49.000Z,46.8
2023-01-07T11:46:59.649Z,46.8
2023-01-07T11:48:09.000Z,46.8
2023-01-07T11:49:19.892Z,46.8
2023-01-07T11:50:30.000Z,46.8
2023-01-07T11:52:50.241Z,46.7
2023-01-07T11:54:00.363Z,46.8
2023-01-07T11:55:10.000Z,46.7
2023-01-07T11:56:20.000Z,46.7
2023-01-07T11:57:29.000Z,46.8
2023-01-07T11:58:39.000Z,46.7
2023-01-07T11:59:49.957Z,46.7
2023-01-07T12:01:00.000Z,46.7
2023-01-07T12:02:10.197Z,46.7
2023-01-07T12:03:20.312Z,46.7
2023-01-07T12:04:30.000Z,46.7
2023-01-07T12:05:40.549Z,46.7
2023-01-07T12:06:50.000Z,46.7
2023-01-07T12:08:00.797Z,46.7
2023-01-07T12:09:10.000Z,46.7
2023-01-07T12:10:21.000Z,46.7
2023-01-07T12:11:31.000Z,46.7
2023-01-07T12:12:40.000Z,46.7
2023-01-07T12:13:50.000Z,46.7
2023-01-07T12:15:00.518Z,46.7
2023-01-07T12:16:10.000Z,46.8
2023-01-07T12:17:20.000Z,46.7
2023-01-07T12:18:30.000Z,46.7
2023-01-07T12:19:40.976Z,46.7
2023-01-07T12:20:51.000Z,46.7
2023-01-07T12:22:01.000Z,46.8
2023-01-07T12:23:11.000Z,46.8
2023-01-07T12:24:21.000Z,46.8
2023-01-07T12:25:31.560Z,46.8
2023-01-07T12:26:41.678Z,46.8
2023-01-07T12:27:50.000Z,46.8
2023-01-07T12:29:00.000Z,46.8
2023-01-07T12:30:11.000Z,46.8
2023-01-07T12:31:21.000Z,46.8
2023-01-07T12:32:31.000Z,46.8
2023-01-07T12:34:51.512Z,46.8
2023-01-07T12:36:01.000Z,46.8
2023-01-07T12:37:11.751Z,46.8
2023-01-07T12:38:21.882Z,46.8
2023-01-07T12:39:31.000Z,46.8
2023-01-07T12:41:52.000Z,46.8
2023-01-07T12:43:01.370Z,46.8
2023-01-07T12:44:11.000Z,46.8
2023-01-07T12:45:21.000Z,46.8
2023-01-07T12:46:31.000Z,46.8
2023-01-07T12:48:51.000Z,46.8
2023-01-07T12:50:02.059Z,46.8
2023-01-07T12:51:11.000Z,46.8
2023-01-07T12:52:20.000Z,46.8
2023-01-07T12:53:30.000Z,46.8
2023-01-07T12:54:40.000Z,46.8
2023-01-07T12:55:50.000Z,46.8
2023-01-07T12:57:00.000Z,46.8
2023-01-07T12:58:10.925Z,46.8
2023-01-07T12:59:21.000Z,46.8
2023-01-07T13:00:31.000Z,46.8
2023-01-07T13:01:41.286Z,46.8
2023-01-07T13:02:51.000Z,46.8
2023-01-07T13:04:00.541Z,46.8
2023-01-07T13:05:09.000Z,46.8
2023-01-07T13:06:19.000Z,46.8
2023-01-07T13:08:40.000Z,46.8
2023-01-07T13:09:50.000Z,46.8
2023-01-07T13:11:00.258Z,46.8
2023-01-07T13:12:10.000Z,46.8
2023-01-07T13:13:20.491Z,46.8
2023-01-07T13:14:30.000Z,46.8
2023-01-07T13:15:40.000Z,46.8
2023-01-07T13:16:50.000Z,46.8
2023-01-07T13:18:00.961Z,46.8
2023-01-07T13:20:21.000Z,46.8
2023-01-07T13:21:30.000Z,46.8
2023-01-07T13:22:39.000Z,46.8
2023-01-07T13:23:49.000Z,46.8
2023-01-07T13:24:59.707Z,46.8
2023-01-07T13:26:09.000Z,46.8
2023-01-07T13:27:19.000Z,46.8
2023-01-07T13:28:30.000Z,46.8
2023-01-07T13:29:40.000Z,46.8
2023-01-07T13:30:50.000Z,46.8
2023-01-07T13:32:00.457Z,46.8
2023-01-07T13:33:10.000Z,46.8
2023-01-07T13:34:19.000Z,46.8
2023-01-07T13:35:28.806Z,46.8
2023-01-07T13:36:38.000Z,46.8
2023-01-07T13:37:49.000Z,46.8
2023-01-07T13:38:59.167Z,46.8
2023-01-07T13:40:09.000Z,46.8
2023-01-07T13:41:19.393Z,46.8
2023-01-07T13:42:29.000Z,46.8
2023-01-07T13:43:39.631Z,46.8
2023-01-07T13:44:49.000Z,46.8
2023-01-07T13:45:59.866Z,46.8
2023-01-07T13:47:09.000Z,46.8
2023-01-07T13:48:20.000Z,46.8
2023-01-07T13:49:30.000Z,46.8
2023-01-07T13:51:49.000Z,46.8
2023-01-07T13:54:09.000Z,46.8
2023-01-07T13:55:18.000Z,46.8
2023-01-07T13:56:27.992Z,46.8
2023-01-07T13:57:38.000Z,46.8
2023-01-07T13:58:48.224Z,46.8
2023-01-07T13:59:58.341Z,46.8
2023-01-07T14:01:08.000Z,46.8
2023-01-07T14:02:18.000Z,46.8
2023-01-07T14:03:28.000Z,46.8
2023-01-07T14:04:38.000Z,46.8
2023-01-07T14:06:59.058Z,46.8
2023-01-07T14:08:09.000Z,46.8
2023-01-07T14:09:19.000Z,46.8
2023-01-07T14:10:29.391Z,46.8
2023-01-07T14:11:38.000Z,46.8
2023-01-07T14:12:48.000Z,46.8
2023-01-07T14:15:08.000Z,46.8
2023-01-07T14:16:18.000Z,46.8
2023-01-07T14:17:27.000Z,46.8
2023-01-07T14:18:37.276Z,46.8
2023-01-07T14:19:47.000Z,46.8
2023-01-07T14:20:57.512Z,46.8
2023-01-07T14:22:07.000Z,46.8
2023-01-07T14:23:17.000Z,46.9
2023-01-07T14:24:27.000Z,46.8
2023-01-07T14:25:37.000Z,46.9
2023-01-07T14:26:48.000Z,46.8
2023-01-07T14:29:08.000Z,46.8
2023-01-07T14:30:18.450Z,46.8
2023-01-07T14:31:27.000Z,46.8
2023-01-07T14:32:37.000Z,46.8
2023-01-07T14:33:47.000Z,46.8
2023-01-07T14:34:57.946Z,46.8
2023-01-07T14:36:08.000Z,46.8
2023-01-07T14:37:18.000Z,46.8
2023-01-07T14:38:28.000Z,46.9
2023-01-07T14:39:38.000Z,46.9
2023-01-07T14:40:48.000Z,46.9
2023-01-07T14:41:57.000Z,46.9
2023-01-07T14:43:06.000Z,46.9
2023-01-07T14:45:27.000Z,46.9
2023-01-07T14:46:37.000Z,46.9
2023-01-07T14:47:47.278Z,46.9
2023-01-07T14:48:56.414Z,46.9
2023-01-07T14:50:05.000Z,46.9
2023-01-07T14:51:15.000Z,46.9
2023-01-07T14:52:25.000Z,46.9
2023-01-07T14:53:35.000Z,46.9
2023-01-07T14:54:46.000Z,46.9
2023-01-07T14:55:56.000Z,46.9
2023-01-07T14:57:06.250Z,46.9
2023-01-07T14:58:16.000Z,46.9
2023-01-07T14:59:26.487Z,46.9
2023-01-07T15:01:46.000Z,46.9
2023-01-07T15:02:56.841Z,46.9
2023-01-07T15:05:17.000Z,46.9
2023-01-07T15:06:26.000Z,46.9
2023-01-07T15:07:35.000Z,46.9
2023-01-07T15:08:45.473Z,46.9
2023-01-07T15:09:55.591Z,46.9
2023-01-07T15:11:05.000Z,46.9
2023-01-07T15:12:15.000Z,46.9
2023-01-07T15:13:25.000Z,46.9
2023-01-07T15:14:36.000Z,46.9
2023-01-07T15:15:46.183Z,46.9
2023-01-07T15:16:56.304Z,46.9
2023-01-07T15:18:06.000Z,46.9
2023-01-07T15:19:15.550Z,46.9
2023-01-07T15:20:24.684Z,46.9
2023-01-07T15:21:34.000Z,46.9
2023-01-07T15:22:44.918Z,46.9
2023-01-07T15:23:55.037Z,46.9
2023-01-07T15:25:05.000Z,47
2023-01-07T15:26:15.274Z,46.9
2023-01-07T15:27:25.000Z,46.9
2023-01-07T15:28:35.519Z,46.9
2023-01-07T15:29:45.000Z,47
2023-01-07T15:30:55.754Z,47
2023-01-07T15:32:04.000Z,46.9
2023-01-07T15:33:14.000Z,47
2023-01-07T15:34:24.139Z,47
2023-01-07T15:35:34.000Z,47
2023-01-07T15:36:44.378Z,47
2023-01-07T15:39:04.000Z,46.9
2023-01-07T15:40:14.000Z,47
2023-01-07T15:41:24.000Z,46.9
2023-01-07T15:43:45.000Z,46.9
2023-01-07T15:44:55.000Z,47
2023-01-07T15:46:05.000Z,47
2023-01-07T15:47:14.000Z,47
2023-01-07T15:48:23.000Z,47
2023-01-07T15:49:33.000Z,47
2023-01-07T15:50:43.000Z,47
2023-01-07T15:51:53.940Z,47
2023-01-07T15:53:04.000Z,46.9
2023-01-07T15:54:14.173Z,47
2023-01-07T15:55:24.294Z,47
2023-01-07T15:56:34.000Z,47
2023-01-07T15:57:44.000Z,47
2023-01-07T16:00:04.000Z,47
2023-01-07T16:01:14.876Z,47
2023-01-07T16:02:25.000Z,47
2023-01-07T16:04:44.249Z,47
2023-01-07T16:05:53.000Z,47
2023-01-07T16:07:02.000Z,47
2023-01-07T16:08:12.000Z,47
2023-01-07T16:09:22.000Z,47
2023-01-07T16:10:32.000Z,47
2023-01-07T16:11:42.000Z,47
2023-01-07T16:12:53.000Z,47
2023-01-07T16:14:03.000Z,47
2023-01-07T16:15:13.000Z,47
2023-01-07T16:16:23.000Z,47
2023-01-07T16:17:33.000Z,47
2023-01-07T16:18:42.000Z,47
2023-01-07T16:19:51.868Z,47
2023-01-07T16:21:01.000Z,47
2023-01-07T16:22:12.000Z,47
2023-01-07T16:23:22.000Z,47
2023-01-07T16:24:32.327Z,47
2023-01-07T16:25:42.000Z,47
2023-01-07T16:26:52.000Z,47
2023-01-07T16:28:02.685Z,47
2023-01-07T16:29:12.000Z,47
2023-01-07T16:30:22.910Z,47
2023-01-07T16:31:33.000Z,47
2023-01-07T16:32:42.000Z,47
2023-01-07T16:35:01.000Z,47
2023-01-07T16:36:11.552Z,47
2023-01-07T16:37:21.000Z,47
2023-01-07T16:38:31.000Z,47
2023-01-07T16:39:41.000Z,47
2023-01-07T16:40:52.018Z,47
2023-01-07T16:42:02.140Z,47
2023-01-07T16:43:12.245Z,47
2023-01-07T16:44:22.000Z,47
2023-01-07T16:45:32.000Z,47
2023-01-07T16:46:42.000Z,47
2023-01-07T16:47:52.716Z,47
2023-01-07T16:49:01.000Z,47
2023-01-07T16:50:11.000Z,47
2023-01-07T16:51:22.000Z,47
2023-01-07T16:52:32.000Z,47
2023-01-07T16:53:42.000Z,47
2023-01-07T16:54:52.000Z,47
2023-01-07T16:56:02.000Z,47
2023-01-07T16:57:12.000Z,47